Time;durP1;ratioP1;P1;durP2;ratioP2;P2;SDS_P1;SDS_P2;PMS_P1;PMS_P2;Temp;Humidity;BMP_temperature;BMP_pressure;BME280_temperature;BME280_humidity;BME280_pressure;Samples;Min_cycle;Max_cycle;Signal;HPM_P1;HPM_P2
2022/10/25 00:01:43;;;;;;;0.80;0.60;;;20.20;62.00;;;;;;6317982;28;20077;-68
2022/10/25 00:04:43;;;;;;;0.65;0.63;;;20.20;62.00;;;;;;6318300;28;20157;-68
2022/10/25 00:07:44;;;;;;;0.82;0.68;;;20.20;62.00;;;;;;6317595;28;20391;-69
2022/10/25 00:10:45;;;;;;;1.42;0.70;;;20.20;62.00;;;;;;6317476;28;20494;-68
2022/10/25 00:13:51;;;;;;;0.60;0.60;;;20.20;62.00;;;;;;6318040;28;20032;-69
2022/10/25 00:16:51;;;;;;;0.88;0.70;;;20.20;62.00;;;;;;6317728;28;20027;-69
2022/10/25 00:19:52;;;;;;;1.20;0.60;;;20.10;62.00;;;;;;6317755;28;20028;-68
2022/10/25 00:22:53;;;;;;;1.40;0.90;;;20.20;62.00;;;;;;6317628;28;20020;-69
2022/10/25 00:26:04;;;;;;;0.82;0.77;;;20.10;61.90;;;;;;6317318;28;20024;-69
2022/10/25 00:29:06;;;;;;;0.88;0.70;;;20.20;62.00;;;;;;6317263;28;20379;-68
2022/10/25 00:32:06;;;;;;;0.77;0.52;;;20.20;62.00;;;;;;6317847;28;20386;-68
2022/10/25 00:35:07;;;;;;;2.05;0.75;;;20.20;62.00;;;;;;6317241;28;20133;-68
2022/10/25 00:38:08;;;;;;;0.60;0.60;;;20.20;62.00;;;;;;6316520;28;20055;-67
2022/10/25 00:41:10;;;;;;;0.50;0.50;;;20.20;62.00;;;;;;6318044;28;20024;-68
2022/10/25 00:44:35;;;;;;;1.38;0.60;;;20.10;61.90;;;;;;6317368;28;20107;-69
2022/10/25 00:47:36;;;;;;;0.85;0.60;;;20.20;62.00;;;;;;6317252;28;20059;-68
2022/10/25 00:50:50;;;;;;;1.30;0.73;;;20.20;62.00;;;;;;6316856;28;20048;-69
2022/10/25 00:53:51;;;;;;;1.80;0.50;;;20.20;62.00;;;;;;6317046;28;20060;-69
2022/10/25 00:56:52;;;;;;;0.95;0.73;;;20.20;62.00;;;;;;6317239;28;20527;-68
2022/10/25 00:59:53;;;;;;;1.58;0.85;;;20.20;62.00;;;;;;6316954;28;20047;-69
2022/10/25 01:02:54;;;;;;;0.50;0.50;;;20.20;62.00;;;;;;6317051;28;20020;-68
2022/10/25 01:05:57;;;;;;;1.02;0.63;;;20.20;62.00;;;;;;6316974;28;20051;-69
2022/10/25 01:09:00;;;;;;;0.65;0.60;;;20.20;62.10;;;;;;6316412;28;20498;-68
2022/10/25 01:12:01;;;;;;;0.73;0.60;;;20.10;62.00;;;;;;6316811;28;20040;-68
2022/10/25 01:15:03;;;;;;;0.90;0.55;;;20.10;62.00;;;;;;6316766;28;20027;-68
2022/10/25 01:18:20;;;;;;;1.13;0.80;;;20.20;62.00;;;;;;6316623;28;20016;-68
2022/10/25 01:21:42;;;;;;;0.70;0.60;;;20.20;62.00;;;;;;6317039;28;20490;-67
2022/10/25 01:25:03;;;;;;;0.70;0.60;;;20.10;61.90;;;;;;6291275;28;20016;-68
2022/10/25 01:28:03;;;;;;;0.68;0.60;;;20.10;62.00;;;;;;6303761;28;20027;-68
2022/10/25 01:31:29;;;;;;;0.90;0.50;;;20.20;62.00;;;;;;6316409;28;20433;-69
2022/10/25 01:34:42;;;;;;;1.00;0.60;;;20.10;62.00;;;;;;6316518;28;20052;-68
2022/10/25 01:37:50;;;;;;;0.70;0.52;;;20.10;62.00;;;;;;6316551;28;20025;-68
2022/10/25 01:41:07;;;;;;;0.90;0.60;;;20.10;62.00;;;;;;6316328;28;20395;-68
2022/10/25 01:45:11;;;;;;;1.02;0.70;;;20.10;62.00;;;;;;6316951;28;20020;-69
2022/10/25 01:48:14;;;;;;;0.68;0.60;;;20.20;62.00;;;;;;6213996;28;20547;-69
2022/10/25 01:51:17;;;;;;;0.93;0.50;;;20.10;62.00;;;;;;6217461;28;20088;-68
2022/10/25 01:54:26;;;;;;;0.43;0.40;;;20.20;62.00;;;;;;6312101;28;20043;-69
2022/10/25 01:57:45;;;;;;;0.70;0.60;;;20.10;62.00;;;;;;6321124;28;20534;-67
2022/10/25 02:01:05;;;;;;;1.13;0.80;;;20.10;62.00;;;;;;6321630;28;20028;-68
2022/10/25 02:04:17;;;;;;;1.58;0.77;;;20.10;62.00;;;;;;6320834;28;20028;-69
2022/10/25 02:07:24;;;;;;;0.77;0.60;;;20.10;62.00;;;;;;6321033;28;20042;-68
2022/10/25 02:10:41;;;;;;;1.08;0.70;;;20.10;62.00;;;;;;6311819;28;20024;-69
2022/10/25 02:13:57;;;;;;;0.70;0.60;;;20.10;62.00;;;;;;6320108;28;20082;-68
2022/10/25 02:17:03;;;;;;;0.47;0.47;;;20.10;62.00;;;;;;6320644;28;20016;-68
2022/10/25 02:20:06;;;;;;;0.82;0.45;;;20.20;62.00;;;;;;6320919;28;20024;-68
2022/10/25 02:23:06;;;;;;;0.90;0.70;;;20.10;62.00;;;;;;6320526;28;20040;-68
2022/10/25 02:26:09;;;;;;;0.70;0.50;;;20.10;62.00;;;;;;6320194;28;20040;-68
2022/10/25 02:29:11;;;;;;;0.90;0.70;;;20.10;62.00;;;;;;6320010;28;20058;-69
2022/10/25 02:32:12;;;;;;;0.70;0.60;;;20.10;62.00;;;;;;6320058;28;20028;-68
2022/10/25 02:35:15;;;;;;;1.52;0.70;;;20.10;62.00;;;;;;6320228;28;20028;-69
2022/10/25 02:38:16;;;;;;;0.50;0.50;;;20.10;62.00;;;;;;6320465;28;20069;-68
2022/10/25 02:41:18;;;;;;;0.50;0.50;;;20.10;62.00;;;;;;6320465;28;20024;-68
2022/10/25 02:44:19;;;;;;;0.43;0.43;;;20.10;62.00;;;;;;6319883;28;20030;-67
2022/10/25 02:47:19;;;;;;;0.47;0.40;;;20.10;62.00;;;;;;6320130;28;20024;-68
2022/10/25 02:50:20;;;;;;;1.02;0.50;;;20.10;62.00;;;;;;6319454;28;20054;-68
2022/10/25 02:53:20;;;;;;;0.52;0.47;;;20.10;62.00;;;;;;6319645;28;20491;-68
2022/10/25 02:56:21;;;;;;;0.98;0.60;;;20.10;62.00;;;;;;6319618;28;20020;-68
2022/10/25 02:59:22;;;;;;;1.02;0.47;;;20.10;62.00;;;;;;6319445;28;20483;-68
2022/10/25 03:02:22;;;;;;;0.95;0.70;;;20.10;62.00;;;;;;6319597;28;20024;-68
2022/10/25 03:05:23;;;;;;;0.75;0.60;;;20.10;62.00;;;;;;6319154;28;20028;-69
2022/10/25 03:08:24;;;;;;;0.50;0.40;;;20.10;62.00;;;;;;6319211;28;20043;-68
2022/10/25 03:11:25;;;;;;;1.00;0.50;;;20.10;62.00;;;;;;6319137;28;20063;-69
2022/10/25 03:14:25;;;;;;;0.40;0.40;;;20.10;62.00;;;;;;6319154;28;20043;-68
2022/10/25 03:17:26;;;;;;;1.50;0.50;;;20.10;62.00;;;;;;6319186;28;20028;-67
2022/10/25 03:20:27;;;;;;;0.57;0.47;;;20.10;62.00;;;;;;6319201;28;20020;-69
2022/10/25 03:23:28;;;;;;;0.70;0.60;;;20.10;62.00;;;;;;6318940;28;20332;-69
2022/10/25 03:26:29;;;;;;;0.95;0.60;;;20.10;62.00;;;;;;6318752;28;20024;-68
2022/10/25 03:29:29;;;;;;;0.50;0.45;;;20.10;62.00;;;;;;6318978;28;20028;-69
2022/10/25 03:32:30;;;;;;;0.93;0.47;;;20.10;62.00;;;;;;6318910;28;20075;-69
2022/10/25 03:35:30;;;;;;;0.93;0.70;;;20.10;62.00;;;;;;6318410;28;20509;-69
2022/10/25 03:38:31;;;;;;;0.85;0.50;;;20.10;62.00;;;;;;6319061;28;20027;-69
2022/10/25 03:41:32;;;;;;;0.90;0.45;;;20.10;62.00;;;;;;6318954;28;20039;-69
2022/10/25 03:44:32;;;;;;;0.60;0.60;;;20.10;62.00;;;;;;6318190;28;20151;-69
2022/10/25 03:47:33;;;;;;;0.50;0.50;;;20.10;62.00;;;;;;6318705;28;20053;-70
2022/10/25 03:50:35;;;;;;;0.70;0.60;;;20.10;62.00;;;;;;6317783;28;20075;-68
2022/10/25 03:53:35;;;;;;;1.05;0.50;;;20.10;62.00;;;;;;6318609;28;20533;-69
2022/10/25 03:56:36;;;;;;;0.70;0.50;;;20.10;61.90;;;;;;6318026;28;20028;-69
2022/10/25 03:59:36;;;;;;;0.93;0.60;;;20.10;62.00;;;;;;6318490;28;20073;-69
2022/10/25 04:02:37;;;;;;;0.80;0.70;;;20.10;62.00;;;;;;6317719;28;20027;-69
2022/10/25 04:05:38;;;;;;;0.70;0.50;;;20.10;62.00;;;;;;6317647;28;20046;-68
2022/10/25 04:08:38;;;;;;;0.70;0.52;;;20.10;62.00;;;;;;6317598;28;20031;-69
2022/10/25 04:11:39;;;;;;;0.70;0.50;;;20.10;62.00;;;;;;6317098;28;20301;-68
2022/10/25 04:14:40;;;;;;;0.45;0.45;;;20.10;61.90;;;;;;6317490;28;20489;-68
2022/10/25 04:17:40;;;;;;;0.68;0.50;;;20.10;62.00;;;;;;6317454;28;20400;-69
2022/10/25 04:20:41;;;;;;;0.63;0.45;;;20.10;62.00;;;;;;6317198;28;20135;-68
2022/10/25 04:23:41;;;;;;;0.90;0.70;;;20.10;62.00;;;;;;6316440;28;20032;-68
2022/10/25 04:26:42;;;;;;;0.70;0.60;;;20.10;61.90;;;;;;6316554;28;20059;-68
2022/10/25 04:29:43;;;;;;;0.45;0.38;;;20.10;62.00;;;;;;6317360;28;20028;-67
2022/10/25 04:32:44;;;;;;;0.47;0.40;;;20.10;62.00;;;;;;6317221;28;20054;-68
2022/10/25 04:35:52;;;;;;;0.30;0.30;;;20.10;62.00;;;;;;6317108;28;20036;-69
2022/10/25 04:38:53;;;;;;;0.60;0.43;;;20.10;62.00;;;;;;6317361;28;20128;-68
2022/10/25 04:41:53;;;;;;;0.63;0.55;;;20.10;62.00;;;;;;6317125;28;20020;-68
2022/10/25 04:44:54;;;;;;;0.60;0.40;;;20.10;62.00;;;;;;6316898;28;20406;-67
2022/10/25 04:47:55;;;;;;;0.50;0.50;;;20.10;62.00;;;;;;6317587;28;20065;-68
2022/10/25 04:50:59;;;;;;;0.70;0.50;;;20.10;62.00;;;;;;6316568;28;20056;-68
2022/10/25 04:53:59;;;;;;;0.47;0.47;;;20.10;62.00;;;;;;6317286;28;20153;-68
2022/10/25 04:57:00;;;;;;;0.60;0.50;;;20.10;62.00;;;;;;6316946;28;20031;-69
2022/10/25 05:00:38;;;;;;;0.50;0.50;;;20.10;61.90;;;;;;6317435;28;20059;-68
2022/10/25 05:03:39;;;;;;;0.80;0.60;;;20.10;62.00;;;;;;6315106;28;20032;-68
2022/10/25 05:06:40;;;;;;;1.17;0.50;;;20.10;62.00;;;;;;6315772;28;20028;-68
2022/10/25 05:09:40;;;;;;;0.73;0.50;;;20.10;62.00;;;;;;6317340;28;20046;-68
2022/10/25 05:12:41;;;;;;;0.75;0.52;;;20.10;62.00;;;;;;6316670;28;20040;-69
2022/10/25 05:15:42;;;;;;;0.30;0.30;;;20.10;62.00;;;;;;6316700;28;20024;-68
2022/10/25 05:18:45;;;;;;;0.35;0.30;;;20.10;62.00;;;;;;6316773;28;20024;-68
2022/10/25 05:21:46;;;;;;;0.50;0.50;;;20.10;61.90;;;;;;6316467;28;20032;-68
2022/10/25 05:24:47;;;;;;;0.65;0.52;;;20.10;62.00;;;;;;6320014;28;20024;-68
2022/10/25 05:27:47;;;;;;;0.77;0.50;;;20.10;62.00;;;;;;6321565;28;20020;-69
2022/10/25 05:30:48;;;;;;;1.20;0.60;;;20.10;62.00;;;;;;6322003;28;20479;-68
2022/10/25 05:33:51;;;;;;;0.63;0.57;;;20.10;62.00;;;;;;6321892;28;20024;-68
2022/10/25 05:36:52;;;;;;;0.73;0.57;;;20.10;62.00;;;;;;6321264;28;20067;-69
2022/10/25 05:39:52;;;;;;;0.52;0.45;;;20.10;62.00;;;;;;6321626;28;20059;-68
2022/10/25 05:42:53;;;;;;;0.70;0.40;;;20.10;62.00;;;;;;6321127;28;20301;-68
2022/10/25 05:46:05;;;;;;;0.90;0.50;;;20.10;62.00;;;;;;6320136;28;20032;-68
2022/10/25 05:49:06;;;;;;;0.60;0.50;;;20.10;61.90;;;;;;6295974;28;20487;-68
2022/10/25 05:52:07;;;;;;;0.35;0.35;;;20.10;62.00;;;;;;6304206;28;20044;-68
2022/10/25 05:55:08;;;;;;;0.40;0.40;;;20.10;62.00;;;;;;6281423;28;20733;-68
2022/10/25 05:58:09;;;;;;;1.00;0.50;;;20.10;62.00;;;;;;6286759;28;20246;-69
2022/10/25 06:01:12;;;;;;;0.68;0.45;;;20.10;62.00;;;;;;6283616;28;20060;-69
2022/10/25 06:04:14;;;;;;;0.75;0.40;;;20.10;62.00;;;;;;6296461;28;20020;-68
2022/10/25 06:07:14;;;;;;;0.57;0.40;;;20.10;62.00;;;;;;6296430;28;20035;-68
2022/10/25 06:10:15;;;;;;;0.50;0.50;;;20.10;62.00;;;;;;6275606;28;20032;-69
2022/10/25 06:13:15;;;;;;;0.45;0.40;;;20.10;62.00;;;;;;6276977;28;20036;-68
2022/10/25 06:16:18;;;;;;;0.70;0.40;;;20.10;62.10;;;;;;6295692;28;20105;-68
2022/10/25 06:19:19;;;;;;;1.15;0.60;;;20.10;61.90;;;;;;6289017;28;20036;-68
2022/10/25 06:22:20;;;;;;;0.50;0.45;;;20.10;61.80;;;;;;6274566;28;20054;-68
2022/10/25 06:25:20;;;;;;;0.63;0.52;;;20.20;61.90;;;;;;6282103;28;20344;-68
2022/10/25 06:28:21;;;;;;;0.50;0.50;;;20.20;61.50;;;;;;6288960;28;20021;-68
2022/10/25 06:31:22;;;;;;;0.98;0.50;;;20.30;61.40;;;;;;6277899;28;20036;-69
2022/10/25 06:34:22;;;;;;;0.75;0.50;;;20.30;61.20;;;;;;6274500;28;20021;-69
2022/10/25 06:37:23;;;;;;;0.47;0.40;;;20.30;61.20;;;;;;6279456;28;20518;-68
2022/10/25 06:40:23;;;;;;;1.63;0.50;;;20.30;61.00;;;;;;6272334;28;20054;-69
2022/10/25 06:43:24;;;;;;;2.40;0.60;;;20.30;61.10;;;;;;6276177;28;20082;-68
2022/10/25 06:46:32;;;;;;;0.40;0.40;;;20.30;61.00;;;;;;6276034;28;20053;-68
2022/10/25 06:49:32;;;;;;;1.80;0.60;;;20.30;61.00;;;;;;6289330;28;20056;-68
2022/10/25 06:52:33;;;;;;;1.10;0.50;;;20.40;61.10;;;;;;6296148;28;20119;-69
2022/10/25 06:55:33;;;;;;;0.95;0.50;;;20.40;61.20;;;;;;6295549;28;20024;-68
2022/10/25 06:58:35;;;;;;;0.73;0.50;;;20.40;61.20;;;;;;6295625;28;20079;-68
2022/10/25 07:01:36;;;;;;;1.95;0.68;;;20.30;61.20;;;;;;6295386;28;20502;-69
2022/10/25 07:04:36;;;;;;;0.43;0.40;;;20.30;61.30;;;;;;6296236;28;20051;-68
2022/10/25 07:07:37;;;;;;;0.70;0.57;;;20.30;61.40;;;;;;6296194;28;20346;-68
2022/10/25 07:10:38;;;;;;;1.38;0.50;;;20.30;61.40;;;;;;6287574;28;20016;-68
2022/10/25 07:13:39;;;;;;;0.47;0.40;;;20.30;61.50;;;;;;6295185;28;20055;-69
2022/10/25 07:16:39;;;;;;;0.82;0.55;;;20.30;61.50;;;;;;6295131;28;20020;-68
2022/10/25 07:19:40;;;;;;;0.60;0.50;;;20.30;61.50;;;;;;6293508;28;20094;-68
2022/10/25 07:22:41;;;;;;;0.60;0.60;;;20.30;61.50;;;;;;6279005;28;20033;-68
2022/10/25 07:25:42;;;;;;;0.70;0.40;;;20.30;61.50;;;;;;6283336;28;20019;-68
2022/10/25 07:28:45;;;;;;;0.88;0.60;;;20.30;61.50;;;;;;6269827;28;20544;-68
2022/10/25 07:31:46;;;;;;;3.05;0.45;;;20.30;61.50;;;;;;6284427;28;20357;-67
2022/10/25 07:34:47;;;;;;;1.30;0.50;;;20.30;61.40;;;;;;6259746;28;20054;-68
2022/10/25 07:37:47;;;;;;;1.05;0.65;;;20.30;61.40;;;;;;6292910;28;20078;-68
2022/10/25 07:40:53;;;;;;;1.58;0.60;;;20.30;61.40;;;;;;6284851;28;20542;-68
2022/10/25 07:43:54;;;;;;;0.60;0.43;;;20.30;61.40;;;;;;6293531;28;20047;-69
2022/10/25 07:46:54;;;;;;;1.83;0.60;;;20.30;61.40;;;;;;6294843;28;20025;-68
2022/10/25 07:49:56;;;;;;;0.75;0.50;;;20.30;61.30;;;;;;6293336;28;20061;-68
2022/10/25 07:52:57;;;;;;;0.82;0.50;;;20.30;61.30;;;;;;6294534;28;20087;-69
2022/10/25 07:55:58;;;;;;;1.48;0.45;;;20.40;61.40;;;;;;6294308;28;20396;-68
2022/10/25 07:58:59;;;;;;;0.80;0.43;;;20.30;61.20;;;;;;6294053;28;20040;-69
2022/10/25 08:01:59;;;;;;;1.00;0.38;;;20.40;61.40;;;;;;6293724;28;20100;-69
2022/10/25 08:05:00;;;;;;;0.80;0.40;;;20.40;61.40;;;;;;6294509;28;20116;-68
2022/10/25 08:08:03;;;;;;;1.48;0.60;;;20.40;61.30;;;;;;6293848;28;20044;-69
2022/10/25 08:11:06;;;;;;;0.65;0.50;;;20.40;61.40;;;;;;6289287;28;20040;-69
2022/10/25 08:14:07;;;;;;;0.57;0.40;;;20.40;61.30;;;;;;6290684;28;20089;-68
2022/10/25 08:17:08;;;;;;;0.55;0.32;;;20.40;61.40;;;;;;6289793;28;20422;-68
2022/10/25 08:20:09;;;;;;;0.63;0.52;;;20.40;61.30;;;;;;6289937;28;20024;-69
2022/10/25 08:23:10;;;;;;;0.65;0.40;;;20.40;61.30;;;;;;6289574;28;20035;-69
2022/10/25 08:26:10;;;;;;;0.68;0.32;;;20.40;61.30;;;;;;6290370;28;20024;-69
2022/10/25 08:29:11;;;;;;;0.88;0.40;;;20.40;61.30;;;;;;6277472;28;20078;-69
2022/10/25 08:32:12;;;;;;;1.70;0.60;;;20.40;61.40;;;;;;6289996;28;20434;-68
2022/10/25 08:35:14;;;;;;;1.80;0.70;;;20.40;61.40;;;;;;6284684;28;20493;-69
2022/10/25 08:38:14;;;;;;;2.17;0.80;;;20.40;61.40;;;;;;6289696;28;20511;-68
2022/10/25 08:41:21;;;;;;;5.95;0.90;;;20.40;61.40;;;;;;6290074;28;20028;-68
2022/10/25 08:44:37;;;;;;;2.40;0.80;;;20.40;61.40;;;;;;6276896;28;20058;-68
2022/10/25 08:47:42;;;;;;;4.45;1.02;;;20.40;61.40;;;;;;6289324;28;21454;-69
2022/10/25 08:50:49;;;;;;;;;;;20.40;61.30;;;;;;6289948;28;20127;-69
2022/10/25 08:53:52;;;;;;;2.40;0.95;;;20.40;61.30;;;;;;6290101;28;19977;-68
2022/10/25 08:57:20;;;;;;;3.53;1.23;;;20.40;61.30;;;;;;6289694;28;20024;-69
2022/10/25 09:00:22;;;;;;;3.35;1.30;;;20.40;61.20;;;;;;6287963;28;20021;-69
2022/10/25 09:03:25;;;;;;;4.45;1.42;;;20.40;61.20;;;;;;6289657;28;20035;-68
2022/10/25 09:06:37;;;;;;;6.63;1.50;;;20.40;61.20;;;;;;6277346;28;20025;-69
2022/10/25 09:09:58;;;;;;;5.38;1.40;;;20.40;61.20;;;;;;6289357;28;20013;-68
2022/10/25 09:13:09;;;;;;;2.85;1.08;;;20.40;61.20;;;;;;6292104;28;20403;-68
2022/10/25 09:16:22;;;;;;;3.72;1.02;;;20.40;61.20;;;;;;6289211;28;20029;-67
2022/10/25 09:19:32;;;;;;;4.60;1.33;;;20.40;61.20;;;;;;6276307;28;20090;-68
2022/10/25 09:22:44;;;;;;;3.45;1.35;;;20.40;61.10;;;;;;6289709;28;20154;-69
2022/10/25 09:26:00;;;;;;;3.90;1.42;;;20.40;61.20;;;;;;6273870;28;20024;-68
2022/10/25 09:29:12;;;;;;;3.25;1.25;;;20.40;61.20;;;;;;6289967;28;20036;-69
2022/10/25 09:32:37;;;;;;;2.00;1.02;;;20.40;61.20;;;;;;6289791;28;20127;-68
2022/10/25 09:35:53;;;;;;;2.35;0.98;;;20.40;61.20;;;;;;6289858;28;20027;-69
2022/10/25 09:38:58;;;;;;;3.33;1.15;;;20.40;61.20;;;;;;6288372;28;20112;-68
2022/10/25 09:42:01;;;;;;;6.00;1.42;;;20.40;61.20;;;;;;6290067;28;20031;-68
2022/10/25 09:45:13;;;;;;;4.70;1.30;;;20.40;61.20;;;;;;6305254;28;20048;-68
2022/10/25 09:48:24;;;;;;;4.13;1.17;;;20.40;61.20;;;;;;6288745;28;20025;-68
2022/10/25 09:51:28;;;;;;;3.20;1.00;;;20.40;61.20;;;;;;6289252;28;20129;-68
2022/10/25 09:54:45;;;;;;;2.13;0.80;;;20.40;61.20;;;;;;6289866;28;20029;-68
2022/10/25 09:57:46;;;;;;;2.10;1.02;;;20.40;61.30;;;;;;6289840;28;20029;-68
2022/10/25 10:00:48;;;;;;;4.03;1.00;;;20.40;61.40;;;;;;6289436;28;20020;-69
2022/10/25 10:03:49;;;;;;;2.05;0.85;;;20.40;62.30;;;;;;6289108;28;20052;-68
2022/10/25 10:06:52;;;;;;;2.35;1.13;;;20.40;62.20;;;;;;6289730;28;20021;-68
2022/10/25 10:09:56;;;;;;;3.13;1.13;;;20.40;61.40;;;;;;6288361;28;20082;-69
2022/10/25 10:13:27;;;;;;;2.80;1.00;;;20.40;61.50;;;;;;6294524;28;20068;-69
2022/10/25 10:16:35;;;;;;;2.08;1.13;;;20.40;61.40;;;;;;6269478;28;20036;-69
2022/10/25 10:19:35;;;;;;;2.20;1.20;;;20.40;61.40;;;;;;6293178;28;20068;-68
2022/10/25 10:22:49;;;;;;;2.40;1.10;;;20.40;61.50;;;;;;6294080;28;20025;-68
2022/10/25 10:25:50;;;;;;;3.72;1.15;;;20.40;61.50;;;;;;6290824;28;20032;-68
2022/10/25 10:29:10;;;;;;;4.18;1.00;;;20.40;61.50;;;;;;6291579;28;20575;-69
2022/10/25 10:32:30;;;;;;;2.60;0.93;;;20.40;61.50;;;;;;6290933;28;20038;-68
2022/10/25 10:35:34;;;;;;;4.47;1.10;;;20.30;61.40;;;;;;6292075;28;20569;-68
2022/10/25 10:38:34;;;;;;;3.85;1.20;;;20.40;61.50;;;;;;6291669;28;20028;-69
2022/10/25 10:41:37;;;;;;;1.00;0.80;;;20.40;61.60;;;;;;6290712;28;20052;-68
2022/10/25 10:44:37;;;;;;;8.18;1.55;;;20.40;61.60;;;;;;6291468;28;20609;-68
2022/10/25 10:47:55;;;;;;;3.80;0.98;;;20.40;61.60;;;;;;6290012;28;20062;-68
2022/10/25 10:50:56;;;;;;;2.22;0.80;;;20.40;61.50;;;;;;6290363;28;20527;-69
2022/10/25 10:53:57;;;;;;;3.80;0.93;;;20.40;61.50;;;;;;6282604;28;20020;-68
2022/10/25 10:57:00;;;;;;;2.28;0.90;;;20.40;61.60;;;;;;6287781;28;20107;-69
2022/10/25 11:00:02;;;;;;;1.60;0.80;;;20.40;61.60;;;;;;6291709;28;20048;-69
2022/10/25 11:03:03;;;;;;;5.28;1.55;;;20.40;61.60;;;;;;6287000;28;20491;-69
2022/10/25 11:06:14;;;;;;;5.13;1.35;;;20.40;61.50;;;;;;6293235;28;20025;-68
2022/10/25 11:09:22;;;;;;;2.05;1.00;;;20.40;61.70;;;;;;6292423;28;21041;-69
2022/10/25 11:12:23;;;;;;;1.92;0.98;;;20.40;61.60;;;;;;6291989;28;20043;-69
2022/10/25 11:15:23;;;;;;;5.22;0.80;;;20.40;61.60;;;;;;6292201;28;20025;-68
2022/10/25 11:19:00;;;;;;;4.32;0.93;;;20.40;61.70;;;;;;6292079;28;20024;-69
2022/10/25 11:22:14;;;;;;;4.15;0.77;;;20.40;61.70;;;;;;6289635;28;20113;-69
2022/10/25 11:25:38;;;;;;;3.65;1.10;;;20.40;61.70;;;;;;6291368;28;20028;-69
2022/10/25 11:28:52;;;;;;;2.03;1.05;;;20.40;61.80;;;;;;6291585;28;20027;-68
2022/10/25 11:32:48;;;;;;;3.35;1.02;;;20.40;61.70;;;;;;6290145;28;20036;-69
2022/10/25 11:36:10;;;;;;;2.17;0.80;;;20.40;61.80;;;;;;6281311;28;20099;-69
2022/10/25 11:39:52;;;;;;;4.10;1.27;;;20.40;61.80;;;;;;6291105;28;20039;-69
2022/10/25 11:43:05;;;;;;;3.15;0.88;;;20.40;61.80;;;;;;6289904;28;20041;-68
2022/10/25 11:46:26;;;;;;;3.88;1.10;;;20.40;61.80;;;;;;6285432;28;20031;-69
2022/10/25 11:49:27;;;;;;;2.33;0.75;;;20.40;61.80;;;;;;6289973;28;20039;-68
2022/10/25 11:52:55;;;;;;;5.30;1.00;;;20.40;61.80;;;;;;6290879;28;20037;-68
2022/10/25 11:56:19;;;;;;;2.35;0.90;;;20.30;61.60;;;;;;6290399;28;20091;-68
2022/10/25 11:59:27;;;;;;;1.77;0.80;;;20.30;61.60;;;;;;6285224;28;20040;-68
2022/10/25 12:02:40;;;;;;;1.98;0.90;;;20.40;61.70;;;;;;6291436;28;20067;-68
2022/10/25 12:06:07;;;;;;;4.75;0.88;;;20.30;61.60;;;;;;6290328;28;20031;-69
2022/10/25 12:09:49;;;;;;;2.38;1.05;;;20.40;61.70;;;;;;6280570;28;20082;-69
2022/10/25 12:13:19;;;;;;;3.55;1.05;;;20.40;61.80;;;;;;6291337;28;20028;-68
2022/10/25 12:16:22;;;;;;;1.83;1.00;;;20.40;61.80;;;;;;6292977;28;20101;-68
2022/10/25 12:19:27;;;;;;;2.17;0.90;;;20.30;61.60;;;;;;6294112;28;20031;-68
2022/10/25 12:22:34;;;;;;;3.03;1.10;;;20.40;61.70;;;;;;6288291;28;20028;-68
2022/10/25 12:25:46;;;;;;;1.48;0.95;;;20.40;61.80;;;;;;6290845;28;20554;-67
2022/10/25 12:28:48;;;;;;;1.15;0.85;;;20.40;61.70;;;;;;6293018;28;20020;-67
2022/10/25 12:31:55;;;;;;;1.35;0.80;;;20.40;61.80;;;;;;6292194;28;20043;-68
2022/10/25 12:34:58;;;;;;;1.60;0.90;;;20.40;61.60;;;;;;6292173;28;20041;-69
2022/10/25 12:38:03;;;;;;;1.65;0.88;;;20.40;61.50;;;;;;6292206;28;20431;-69
2022/10/25 12:41:14;;;;;;;1.20;0.80;;;20.40;61.30;;;;;;6292845;28;20027;-69
2022/10/25 12:44:46;;;;;;;1.48;0.63;;;20.50;61.50;;;;;;6292136;28;20020;-68
2022/10/25 12:48:01;;;;;;;4.90;0.85;;;20.50;61.40;;;;;;6279268;28;20484;-69
2022/10/25 12:51:31;;;;;;;1.55;0.85;;;20.40;61.50;;;;;;6267670;28;20052;-68
2022/10/25 12:54:42;;;;;;;1.55;0.93;;;20.40;61.70;;;;;;6291929;28;20044;-68
2022/10/25 12:58:04;;;;;;;2.92;1.33;;;20.50;61.60;;;;;;6292113;28;20024;-68
2022/10/25 13:01:26;;;;;;;2.58;1.25;;;20.40;61.60;;;;;;6279150;28;20333;-68
2022/10/25 13:04:44;;;;;;;5.75;1.10;;;20.50;61.60;;;;;;6273257;28;20044;-68
2022/10/25 13:07:47;;;;;;;5.80;1.83;;;20.40;61.50;;;;;;6278498;28;20431;-69
2022/10/25 13:10:56;;;;;;;5.03;1.35;;;20.40;61.50;;;;;;6290889;28;20020;-68
2022/10/25 13:13:57;;;;;;;5.90;1.33;;;20.40;61.60;;;;;;6292705;28;20096;-68
2022/10/25 13:17:16;;;;;;;3.60;1.20;;;20.40;61.60;;;;;;6294819;28;20033;-68
2022/10/25 13:20:17;;;;;;;3.08;1.20;;;20.40;61.60;;;;;;6294407;28;20024;-68
2022/10/25 13:23:39;;;;;;;5.72;1.50;;;20.40;61.60;;;;;;6290343;28;20021;-68
2022/10/25 13:27:20;;;;;;;3.17;1.60;;;20.40;61.60;;;;;;6289253;28;20538;-69
2022/10/25 13:30:26;;;;;;;4.10;1.70;;;20.40;61.70;;;;;;6290551;28;20016;-68
2022/10/25 13:33:32;;;;;;;3.80;1.73;;;20.40;61.60;;;;;;6291300;28;20040;-68
2022/10/25 13:36:52;;;;;;;5.60;2.08;;;20.40;61.60;;;;;;6307285;28;20434;-69
2022/10/25 13:39:53;;;;;;;3.95;1.52;;;20.40;61.70;;;;;;6291011;28;20134;-68
2022/10/25 13:43:05;;;;;;;5.07;2.03;;;20.40;61.70;;;;;;6291678;28;20596;-69
2022/10/25 13:46:10;;;;;;;4.00;1.75;;;20.40;61.80;;;;;;6294715;28;20367;-68
2022/10/25 13:49:22;;;;;;;3.50;1.77;;;20.40;61.70;;;;;;6296139;28;20036;-68
2022/10/25 13:52:31;;;;;;;7.18;2.05;;;20.40;61.60;;;;;;6295698;28;20041;-69
2022/10/25 13:55:38;;;;;;;4.20;1.80;;;20.40;61.60;;;;;;6295034;28;20089;-68
2022/10/25 13:58:46;;;;;;;5.50;2.20;;;20.40;61.60;;;;;;6296289;28;20074;-69
2022/10/25 14:01:46;;;;;;;4.28;1.70;;;20.40;61.70;;;;;;6295002;28;20032;-68
2022/10/25 14:04:47;;;;;;;4.00;2.10;;;20.40;61.70;;;;;;6295710;28;20044;-69
2022/10/25 14:07:50;;;;;;;3.95;1.83;;;20.40;61.70;;;;;;6295675;28;20487;-68
2022/10/25 14:10:51;;;;;;;6.38;2.22;;;20.40;61.70;;;;;;6293747;28;20027;-68
2022/10/25 14:14:12;;;;;;;8.23;1.92;;;20.40;61.70;;;;;;6289645;28;20383;-68
2022/10/25 14:17:35;;;;;;;3.38;1.50;;;20.40;61.80;;;;;;6296221;28;20029;-69
2022/10/25 14:20:37;;;;;;;3.00;1.40;;;20.40;61.80;;;;;;6292889;28;20032;-69
2022/10/25 14:23:40;;;;;;;6.13;1.95;;;20.40;61.80;;;;;;6294109;28;20495;-68
2022/10/25 14:26:55;;;;;;;5.10;1.75;;;20.40;61.80;;;;;;6298922;28;20488;-68
2022/10/25 14:30:22;;;;;;;4.65;1.85;;;20.40;61.80;;;;;;6301519;28;20106;-68
2022/10/25 14:33:32;;;;;;;4.00;1.77;;;20.40;61.80;;;;;;6296560;28;20032;-68
2022/10/25 14:36:37;;;;;;;4.38;1.90;;;20.40;61.90;;;;;;6298844;28;20024;-68
2022/10/25 14:39:50;;;;;;;6.50;1.90;;;20.40;62.00;;;;;;6296759;28;20059;-68
2022/10/25 14:42:54;;;;;;;4.72;2.00;;;20.30;61.80;;;;;;6270188;28;20037;-69
2022/10/25 14:46:16;;;;;;;3.78;1.52;;;20.40;61.90;;;;;;6289221;28;20490;-68
2022/10/25 14:49:16;;;;;;;5.68;1.70;;;20.40;61.90;;;;;;6282334;28;20298;-68
2022/10/25 14:52:17;;;;;;;2.67;1.50;;;20.40;61.90;;;;;;6295627;28;20464;-68
2022/10/25 14:55:29;;;;;;;3.42;1.55;;;20.40;61.90;;;;;;6292861;28;20024;-68
2022/10/25 14:58:41;;;;;;;4.63;1.90;;;20.40;61.90;;;;;;6295660;28;20028;-69
2022/10/25 15:01:52;;;;;;;4.07;1.77;;;20.40;61.90;;;;;;6294950;28;20020;-69
2022/10/25 15:04:56;;;;;;;3.97;1.90;;;20.40;61.90;;;;;;6296203;28;20028;-68
2022/10/25 15:07:58;;;;;;;6.70;2.08;;;20.40;61.90;;;;;;6295847;28;20093;-68
2022/10/25 15:11:05;;;;;;;5.50;2.03;;;20.40;61.90;;;;;;6295634;28;20082;-68
2022/10/25 15:14:20;;;;;;;4.25;1.60;;;20.40;61.90;;;;;;6301281;28;20032;-68
2022/10/25 15:17:21;;;;;;;4.88;1.60;;;20.40;61.90;;;;;;6295445;28;20103;-69
2022/10/25 15:20:26;;;;;;;3.63;1.80;;;20.40;61.90;;;;;;6277532;28;20071;-69
2022/10/25 15:23:27;;;;;;;3.08;1.60;;;20.40;62.00;;;;;;6286733;28;20066;-68
2022/10/25 15:26:29;;;;;;;2.25;1.52;;;20.40;61.90;;;;;;6289930;28;20387;-68
2022/10/25 15:29:46;;;;;;;2.55;1.33;;;20.40;62.00;;;;;;6270953;28;20049;-69
2022/10/25 15:32:46;;;;;;;3.13;1.25;;;20.40;62.00;;;;;;6292524;28;20032;-69
2022/10/25 15:35:56;;;;;;;3.50;1.48;;;20.40;62.00;;;;;;6295618;28;20032;-68
2022/10/25 15:38:59;;;;;;;3.33;1.48;;;20.40;62.00;;;;;;6295715;28;20031;-69
2022/10/25 15:42:00;;;;;;;3.10;1.60;;;20.40;62.00;;;;;;6294695;28;20111;-68
2022/10/25 15:45:03;;;;;;;3.67;1.27;;;20.40;62.00;;;;;;6296215;28;20148;-69
2022/10/25 15:48:06;;;;;;;2.42;1.08;;;20.40;62.00;;;;;;6289480;28;20017;-68
2022/10/25 15:51:10;;;;;;;2.30;1.35;;;20.40;62.00;;;;;;6276748;28;20084;-68
2022/10/25 15:54:18;;;;;;;2.63;1.48;;;20.40;62.00;;;;;;6295236;28;20020;-68
2022/10/25 15:57:18;;;;;;;2.13;1.15;;;20.40;62.00;;;;;;6291974;28;20029;-68
2022/10/25 16:00:22;;;;;;;3.20;1.23;;;20.40;62.00;;;;;;6295018;28;20029;-68
2022/10/25 16:03:23;;;;;;;3.22;1.40;;;20.40;62.00;;;;;;6293048;28;20027;-68
2022/10/25 16:06:24;;;;;;;5.30;1.23;;;20.40;62.00;;;;;;6294480;28;20033;-67
2022/10/25 16:09:24;;;;;;;2.90;1.40;;;20.40;62.00;;;;;;6281596;28;20107;-68
2022/10/25 16:12:30;;;;;;;2.75;1.55;;;20.40;62.00;;;;;;6293785;28;20044;-68